sensor_id;sensor_type;location;lat;lon;timestamp;temperature;humidity
2391;DHT22;22957;50.824;4.360;2022-09-01T00:00:32;19.60;99.90
2391;DHT22;22957;50.824;4.360;2022-09-01T00:02:58;19.40;99.90
2391;DHT22;22957;50.824;4.360;2022-09-01T00:05:24;19.30;99.90
2391;DHT22;22957;50.824;4.360;2022-09-01T00:07:50;19.30;99.90
2391;DHT22;22957;50.824;4.360;2022-09-01T00:10:16;19.20;99.90
2391;DHT22;22957;50.824;4.360;2022-09-01T00:12:43;19.30;99.90
2391;DHT22;22957;50.824;4.360;2022-09-01T00:15:11;19.20;99.90
2391;DHT22;22957;50.824;4.360;2022-09-01T00:17:37;19.20;99.90
2391;DHT22;22957;50.824;4.360;2022-09-01T00:20:04;19.00;99.90
2391;DHT22;22957;50.824;4.360;2022-09-01T00:22:30;19.10;99.90
2391;DHT22;22957;50.824;4.360;2022-09-01T00:24:58;18.90;99.90
2391;DHT22;22957;50.824;4.360;2022-09-01T00:27:26;19.40;99.90
2391;DHT22;22957;50.824;4.360;2022-09-01T00:29:51;19.30;99.90
2391;DHT22;22957;50.824;4.360;2022-09-01T00:32:18;19.10;99.90
2391;DHT22;22957;50.824;4.360;2022-09-01T00:34:44;19.50;99.90
2391;DHT22;22957;50.824;4.360;2022-09-01T00:37:10;19.10;99.90
2391;DHT22;22957;50.824;4.360;2022-09-01T00:39:35;19.00;99.90
2391;DHT22;22957;50.824;4.360;2022-09-01T00:42:01;19.10;99.90
2391;DHT22;22957;50.824;4.360;2022-09-01T00:44:27;18.90;99.90
2391;DHT22;22957;50.824;4.360;2022-09-01T00:46:55;18.90;99.90
2391;DHT22;22957;50.824;4.360;2022-09-01T00:49:31;19.10;99.90
2391;DHT22;22957;50.824;4.360;2022-09-01T00:52:29;19.00;99.90
2391;DHT22;22957;50.824;4.360;2022-09-01T00:54:59;18.70;99.90
2391;DHT22;22957;50.824;4.360;2022-09-01T00:57:27;18.80;99.90
2391;DHT22;22957;50.824;4.360;2022-09-01T00:59:57;18.80;99.90
2391;DHT22;22957;50.824;4.360;2022-09-01T01:02:24;18.70;99.90
2391;DHT22;22957;50.824;4.360;2022-09-01T01:04:50;18.90;99.90
2391;DHT22;22957;50.824;4.360;2022-09-01T01:07:18;19.00;99.90
2391;DHT22;22957;50.824;4.360;2022-09-01T01:09:47;18.60;99.90
2391;DHT22;22957;50.824;4.360;2022-09-01T01:12:14;18.70;99.90
2391;DHT22;22957;50.824;4.360;2022-09-01T01:14:44;18.50;99.90
2391;DHT22;22957;50.824;4.360;2022-09-01T01:17:12;18.50;99.90
2391;DHT22;22957;50.824;4.360;2022-09-01T01:19:47;18.60;99.90
2391;DHT22;22957;50.824;4.360;2022-09-01T01:28:29;19.70;99.90
2391;DHT22;22957;50.824;4.360;2022-09-01T01:31:02;18.90;99.90
2391;DHT22;22957;50.824;4.360;2022-09-01T01:33:51;19.00;99.90
2391;DHT22;22957;50.824;4.360;2022-09-01T01:36:30;19.00;99.90
2391;DHT22;22957;50.824;4.360;2022-09-01T01:38:58;19.30;99.90
2391;DHT22;22957;50.824;4.360;2022-09-01T01:41:27;19.10;99.90
2391;DHT22;22957;50.824;4.360;2022-09-01T01:43:56;18.80;99.90
2391;DHT22;22957;50.824;4.360;2022-09-01T01:46:22;18.50;99.90
2391;DHT22;22957;50.824;4.360;2022-09-01T01:48:50;18.70;99.90
2391;DHT22;22957;50.824;4.360;2022-09-01T01:51:17;18.40;99.90
2391;DHT22;22957;50.824;4.360;2022-09-01T01:53:46;18.60;99.90
2391;DHT22;22957;50.824;4.360;2022-09-01T01:56:17;18.40;99.90
2391;DHT22;22957;50.824;4.360;2022-09-01T01:58:44;18.40;99.90
2391;DHT22;22957;50.824;4.360;2022-09-01T02:01:10;18.40;99.90
2391;DHT22;22957;50.824;4.360;2022-09-01T02:03:37;19.00;99.90
2391;DHT22;22957;50.824;4.360;2022-09-01T02:06:06;18.70;99.90
2391;DHT22;22957;50.824;4.360;2022-09-01T02:08:37;18.40;99.90
2391;DHT22;22957;50.824;4.360;2022-09-01T02:11:05;18.00;99.90
2391;DHT22;22957;50.824;4.360;2022-09-01T02:13:31;18.30;99.90
2391;DHT22;22957;50.824;4.360;2022-09-01T02:16:03;18.00;99.90
2391;DHT22;22957;50.824;4.360;2022-09-01T02:18:35;18.10;99.90
2391;DHT22;22957;50.824;4.360;2022-09-01T02:21:06;18.00;99.90
2391;DHT22;22957;50.824;4.360;2022-09-01T02:23:35;18.00;99.90
2391;DHT22;22957;50.824;4.360;2022-09-01T02:26:01;17.70;99.90
2391;DHT22;22957;50.824;4.360;2022-09-01T02:28:29;18.00;99.90
2391;DHT22;22957;50.824;4.360;2022-09-01T02:30:57;17.90;99.90
2391;DHT22;22957;50.824;4.360;2022-09-01T02:33:25;18.30;99.90
2391;DHT22;22957;50.824;4.360;2022-09-01T02:35:54;18.70;99.90
2391;DHT22;22957;50.824;4.360;2022-09-01T02:38:21;18.60;99.90
2391;DHT22;22957;50.824;4.360;2022-09-01T02:40:52;18.30;99.90
2391;DHT22;22957;50.824;4.360;2022-09-01T02:43:19;18.70;99.90
2391;DHT22;22957;50.824;4.360;2022-09-01T02:45:50;18.60;99.90
2391;DHT22;22957;50.824;4.360;2022-09-01T02:48:18;19.00;99.90
2391;DHT22;22957;50.824;4.360;2022-09-01T02:50:47;18.10;99.90
2391;DHT22;22957;50.824;4.360;2022-09-01T02:53:13;18.00;99.90
2391;DHT22;22957;50.824;4.360;2022-09-01T02:55:43;18.10;99.90
2391;DHT22;22957;50.824;4.360;2022-09-01T02:58:09;17.80;99.90
2391;DHT22;22957;50.824;4.360;2022-09-01T03:00:44;18.50;99.90
2391;DHT22;22957;50.824;4.360;2022-09-01T03:03:12;17.60;99.90
2391;DHT22;22957;50.824;4.360;2022-09-01T03:05:38;17.60;99.90
2391;DHT22;22957;50.824;4.360;2022-09-01T03:08:07;17.60;99.90
2391;DHT22;22957;50.824;4.360;2022-09-01T03:10:37;17.20;99.90
2391;DHT22;22957;50.824;4.360;2022-09-01T03:13:12;17.40;99.90
2391;DHT22;22957;50.824;4.360;2022-09-01T03:15:38;17.50;99.90
2391;DHT22;22957;50.824;4.360;2022-09-01T03:18:06;17.50;99.90
2391;DHT22;22957;50.824;4.360;2022-09-01T03:20:35;17.60;99.90
2391;DHT22;22957;50.824;4.360;2022-09-01T03:23:03;17.50;99.90
2391;DHT22;22957;50.824;4.360;2022-09-01T03:25:30;17.60;99.90
2391;DHT22;22957;50.824;4.360;2022-09-01T03:27:57;17.40;99.90
2391;DHT22;22957;50.824;4.360;2022-09-01T03:30:32;17.60;99.90
2391;DHT22;22957;50.824;4.360;2022-09-01T03:33:00;17.40;99.90
2391;DHT22;22957;50.824;4.360;2022-09-01T03:35:27;17.30;99.90
2391;DHT22;22957;50.824;4.360;2022-09-01T03:37:54;17.50;99.90
2391;DHT22;22957;50.824;4.360;2022-09-01T03:40:28;17.00;99.90
2391;DHT22;22957;50.824;4.360;2022-09-01T03:43:00;16.90;99.90
2391;DHT22;22957;50.824;4.360;2022-09-01T03:45:27;17.40;99.90
2391;DHT22;22957;50.824;4.360;2022-09-01T03:47:54;16.90;99.90
2391;DHT22;22957;50.824;4.360;2022-09-01T03:50:23;17.10;99.90
2391;DHT22;22957;50.824;4.360;2022-09-01T03:52:51;17.20;99.90
2391;DHT22;22957;50.824;4.360;2022-09-01T03:55:23;17.00;99.90
2391;DHT22;22957;50.824;4.360;2022-09-01T03:57:56;16.90;99.90
2391;DHT22;22957;50.824;4.360;2022-09-01T04:00:24;17.00;99.90
2391;DHT22;22957;50.824;4.360;2022-09-01T04:02:55;17.20;99.90
2391;DHT22;22957;50.824;4.360;2022-09-01T04:05:27;16.90;99.90
2391;DHT22;22957;50.824;4.360;2022-09-01T04:08:03;17.10;99.90
2391;DHT22;22957;50.824;4.360;2022-09-01T04:10:32;16.90;99.90
2391;DHT22;22957;50.824;4.360;2022-09-01T04:13:01;16.90;99.90
2391;DHT22;22957;50.824;4.360;2022-09-01T04:15:28;16.90;99.90
2391;DHT22;22957;50.824;4.360;2022-09-01T04:17:54;17.00;99.90
2391;DHT22;22957;50.824;4.360;2022-09-01T04:20:51;16.80;99.90
2391;DHT22;22957;50.824;4.360;2022-09-01T04:23:28;16.70;99.90
2391;DHT22;22957;50.824;4.360;2022-09-01T04:26:06;16.90;99.90
2391;DHT22;22957;50.824;4.360;2022-09-01T04:28:47;16.80;99.90
2391;DHT22;22957;50.824;4.360;2022-09-01T04:31:19;16.70;99.90
2391;DHT22;22957;50.824;4.360;2022-09-01T04:33:47;16.70;99.90
2391;DHT22;22957;50.824;4.360;2022-09-01T04:36:31;16.70;99.90
2391;DHT22;22957;50.824;4.360;2022-09-01T04:39:03;16.60;99.90
2391;DHT22;22957;50.824;4.360;2022-09-01T04:41:36;16.60;99.90
2391;DHT22;22957;50.824;4.360;2022-09-01T04:44:04;16.70;99.90
2391;DHT22;22957;50.824;4.360;2022-09-01T04:46:32;17.00;99.90
2391;DHT22;22957;50.824;4.360;2022-09-01T04:49:04;16.60;99.90
2391;DHT22;22957;50.824;4.360;2022-09-01T04:51:36;16.70;99.90
2391;DHT22;22957;50.824;4.360;2022-09-01T04:54:03;16.20;99.90
2391;DHT22;22957;50.824;4.360;2022-09-01T04:56:30;16.50;99.90
2391;DHT22;22957;50.824;4.360;2022-09-01T04:58:59;16.70;99.90
2391;DHT22;22957;50.824;4.360;2022-09-01T05:01:26;16.40;99.90
2391;DHT22;22957;50.824;4.360;2022-09-01T05:06:28;16.50;99.90
2391;DHT22;22957;50.824;4.360;2022-09-01T05:08:54;16.40;99.90
2391;DHT22;22957;50.824;4.360;2022-09-01T05:19:10;16.70;99.90
2391;DHT22;22957;50.824;4.360;2022-09-01T05:21:44;16.50;99.90
2391;DHT22;22957;50.824;4.360;2022-09-01T05:24:19;16.70;99.90
2391;DHT22;22957;50.824;4.360;2022-09-01T05:26:46;16.70;99.90
2391;DHT22;22957;50.824;4.360;2022-09-01T05:31:44;17.00;99.90
2391;DHT22;22957;50.824;4.360;2022-09-01T05:34:15;16.90;99.90
2391;DHT22;22957;50.824;4.360;2022-09-01T05:36:56;17.10;99.90
2391;DHT22;22957;50.824;4.360;2022-09-01T05:47:09;17.00;99.90
2391;DHT22;22957;50.824;4.360;2022-09-01T05:49:41;17.10;99.90
2391;DHT22;22957;50.824;4.360;2022-09-01T05:52:32;17.20;99.90
2391;DHT22;22957;50.824;4.360;2022-09-01T05:55:05;17.20;99.90
2391;DHT22;22957;50.824;4.360;2022-09-01T05:57:52;17.00;99.90
2391;DHT22;22957;50.824;4.360;2022-09-01T06:00:18;17.20;99.90
2391;DHT22;22957;50.824;4.360;2022-09-01T16:20:58;25.50;84.20
2391;DHT22;22957;50.824;4.360;2022-09-01T16:23:43;25.20;82.80
2391;DHT22;22957;50.824;4.360;2022-09-01T16:26:10;25.20;82.90
2391;DHT22;22957;50.824;4.360;2022-09-01T16:28:44;25.10;83.70
2391;DHT22;22957;50.824;4.360;2022-09-01T16:31:18;25.40;82.10
2391;DHT22;22957;50.824;4.360;2022-09-01T16:33:48;25.30;81.90
2391;DHT22;22957;50.824;4.360;2022-09-01T16:36:35;25.50;83.00
2391;DHT22;22957;50.824;4.360;2022-09-01T16:39:15;25.20;80.10
2391;DHT22;22957;50.824;4.360;2022-09-01T16:44:44;25.00;81.30
2391;DHT22;22957;50.824;4.360;2022-09-01T16:56:11;24.80;81.90
2391;DHT22;22957;50.824;4.360;2022-09-01T17:07:27;24.90;83.20
2391;DHT22;22957;50.824;4.360;2022-09-01T17:10:31;24.70;82.60
2391;DHT22;22957;50.824;4.360;2022-09-01T17:13:35;24.50;85.20
2391;DHT22;22957;50.824;4.360;2022-09-01T17:19:08;24.60;83.80
2391;DHT22;22957;50.824;4.360;2022-09-01T17:21:40;24.50;84.10
2391;DHT22;22957;50.824;4.360;2022-09-01T17:26:41;24.60;83.30
2391;DHT22;22957;50.824;4.360;2022-09-01T17:29:33;24.70;85.00
2391;DHT22;22957;50.824;4.360;2022-09-01T17:40:48;25.20;84.20
2391;DHT22;22957;50.824;4.360;2022-09-01T17:46:10;25.10;82.90
2391;DHT22;22957;50.824;4.360;2022-09-01T17:48:53;24.60;84.10
2391;DHT22;22957;50.824;4.360;2022-09-01T17:51:55;24.30;84.70
2391;DHT22;22957;50.824;4.360;2022-09-01T17:54:43;24.30;86.20
2391;DHT22;22957;50.824;4.360;2022-09-01T18:00:22;24.30;85.50
2391;DHT22;22957;50.824;4.360;2022-09-01T18:05:25;24.20;86.60
2391;DHT22;22957;50.824;4.360;2022-09-01T18:08:07;24.60;87.10
2391;DHT22;22957;50.824;4.360;2022-09-01T18:10:49;24.00;85.80
2391;DHT22;22957;50.824;4.360;2022-09-01T18:13:25;24.20;87.50
2391;DHT22;22957;50.824;4.360;2022-09-01T18:15:53;24.10;86.60
2391;DHT22;22957;50.824;4.360;2022-09-01T18:18:22;23.90;87.70
2391;DHT22;22957;50.824;4.360;2022-09-01T18:23:44;24.10;86.90
2391;DHT22;22957;50.824;4.360;2022-09-01T18:28:50;23.80;87.30
2391;DHT22;22957;50.824;4.360;2022-09-01T18:34:25;23.60;88.40
2391;DHT22;22957;50.824;4.360;2022-09-01T18:37:32;23.60;87.70
2391;DHT22;22957;50.824;4.360;2022-09-01T18:45:36;24.30;87.10
2391;DHT22;22957;50.824;4.360;2022-09-01T18:53:48;23.70;87.70
2391;DHT22;22957;50.824;4.360;2022-09-01T18:59:11;23.70;89.00
2391;DHT22;22957;50.824;4.360;2022-09-01T19:01:46;24.00;89.40
2391;DHT22;22957;50.824;4.360;2022-09-01T19:04:31;24.00;88.50
2391;DHT22;22957;50.824;4.360;2022-09-01T19:07:15;23.70;89.30
2391;DHT22;22957;50.824;4.360;2022-09-01T19:09:57;23.40;89.10
2391;DHT22;22957;50.824;4.360;2022-09-01T19:12:36;23.10;90.20
2391;DHT22;22957;50.824;4.360;2022-09-01T19:15:23;23.40;90.40
2391;DHT22;22957;50.824;4.360;2022-09-01T19:20:55;23.30;90.00
2391;DHT22;22957;50.824;4.360;2022-09-01T19:23:38;23.30;90.10
2391;DHT22;22957;50.824;4.360;2022-09-01T19:26:10;23.40;90.40
2391;DHT22;22957;50.824;4.360;2022-09-01T19:28:44;23.30;90.30
2391;DHT22;22957;50.824;4.360;2022-09-01T19:33:45;23.30;90.50
2391;DHT22;22957;50.824;4.360;2022-09-01T19:36:19;23.30;90.50
2391;DHT22;22957;50.824;4.360;2022-09-01T19:38:46;23.20;91.20
2391;DHT22;22957;50.824;4.360;2022-09-01T19:41:19;23.80;90.50
2391;DHT22;22957;50.824;4.360;2022-09-01T19:43:47;23.80;90.30
2391;DHT22;22957;50.824;4.360;2022-09-01T19:48:56;23.40;90.60
2391;DHT22;22957;50.824;4.360;2022-09-01T19:57:35;23.80;90.60
2391;DHT22;22957;50.824;4.360;2022-09-01T20:00:12;23.60;90.90
2391;DHT22;22957;50.824;4.360;2022-09-01T20:03:06;23.50;90.60
2391;DHT22;22957;50.824;4.360;2022-09-01T20:06:03;23.00;91.10
2391;DHT22;22957;50.824;4.360;2022-09-01T20:11:27;23.10;91.30
2391;DHT22;22957;50.824;4.360;2022-09-01T20:16:48;22.80;91.80
2391;DHT22;22957;50.824;4.360;2022-09-01T20:19:41;22.70;92.00
2391;DHT22;22957;50.824;4.360;2022-09-01T20:24:38;22.60;92.50
2391;DHT22;22957;50.824;4.360;2022-09-01T20:27:33;22.50;92.90
2391;DHT22;22957;50.824;4.360;2022-09-01T20:30:07;22.50;92.80
2391;DHT22;22957;50.824;4.360;2022-09-01T20:35:38;22.30;93.10
2391;DHT22;22957;50.824;4.360;2022-09-01T20:38:26;22.60;93.30
2391;DHT22;22957;50.824;4.360;2022-09-01T20:41:19;22.50;93.10
2391;DHT22;22957;50.824;4.360;2022-09-01T20:43:49;22.10;93.80
2391;DHT22;22957;50.824;4.360;2022-09-01T20:46:17;22.00;93.80
2391;DHT22;22957;50.824;4.360;2022-09-01T20:48:44;21.80;94.00
2391;DHT22;22957;50.824;4.360;2022-09-01T20:59:55;21.50;95.30
2391;DHT22;22957;50.824;4.360;2022-09-01T21:11:09;21.70;95.30
2391;DHT22;22957;50.824;4.360;2022-09-01T21:21:35;21.40;96.80
2391;DHT22;22957;50.824;4.360;2022-09-01T21:24:04;21.20;97.40
2391;DHT22;22957;50.824;4.360;2022-09-01T21:26:30;21.30;97.60
2391;DHT22;22957;50.824;4.360;2022-09-01T21:31:51;21.10;97.90
2391;DHT22;22957;50.824;4.360;2022-09-01T21:34:16;21.10;98.10
2391;DHT22;22957;50.824;4.360;2022-09-01T21:36:42;21.00;98.50
2391;DHT22;22957;50.824;4.360;2022-09-01T21:39:08;21.00;98.50
2391;DHT22;22957;50.824;4.360;2022-09-01T21:41:34;20.90;98.60
2391;DHT22;22957;50.824;4.360;2022-09-01T21:44:00;21.00;98.90
2391;DHT22;22957;50.824;4.360;2022-09-01T21:46:25;21.00;99.00
2391;DHT22;22957;50.824;4.360;2022-09-01T21:48:51;21.00;99.00
2391;DHT22;22957;50.824;4.360;2022-09-01T21:51:17;20.90;99.20
2391;DHT22;22957;50.824;4.360;2022-09-01T21:53:43;20.80;99.60
2391;DHT22;22957;50.824;4.360;2022-09-01T21:56:08;20.70;99.80
2391;DHT22;22957;50.824;4.360;2022-09-01T21:58:38;20.60;99.90
2391;DHT22;22957;50.824;4.360;2022-09-01T22:01:04;20.60;99.90
2391;DHT22;22957;50.824;4.360;2022-09-01T22:03:32;20.70;99.90
2391;DHT22;22957;50.824;4.360;2022-09-01T22:05:58;20.90;99.90
2391;DHT22;22957;50.824;4.360;2022-09-01T22:08:24;20.70;99.90
2391;DHT22;22957;50.824;4.360;2022-09-01T22:10:52;20.80;99.90
2391;DHT22;22957;50.824;4.360;2022-09-01T22:13:21;20.80;99.90
2391;DHT22;22957;50.824;4.360;2022-09-01T22:15:50;20.90;99.90
2391;DHT22;22957;50.824;4.360;2022-09-01T22:18:18;20.60;99.90
2391;DHT22;22957;50.824;4.360;2022-09-01T22:20:44;20.40;99.90
2391;DHT22;22957;50.824;4.360;2022-09-01T22:23:11;20.40;99.90
2391;DHT22;22957;50.824;4.360;2022-09-01T22:25:42;20.30;99.90
2391;DHT22;22957;50.824;4.360;2022-09-01T22:28:08;20.30;99.90
2391;DHT22;22957;50.824;4.360;2022-09-01T22:30:35;20.10;99.90
2391;DHT22;22957;50.824;4.360;2022-09-01T22:33:01;20.20;99.90
2391;DHT22;22957;50.824;4.360;2022-09-01T22:35:27;20.10;99.90
2391;DHT22;22957;50.824;4.360;2022-09-01T22:37:53;20.10;99.90
2391;DHT22;22957;50.824;4.360;2022-09-01T22:40:19;20.10;99.90
2391;DHT22;22957;50.824;4.360;2022-09-01T22:42:45;20.20;99.90
2391;DHT22;22957;50.824;4.360;2022-09-01T22:45:13;20.10;99.90
2391;DHT22;22957;50.824;4.360;2022-09-01T22:47:39;20.10;99.90
2391;DHT22;22957;50.824;4.360;2022-09-01T22:50:07;20.00;99.90
2391;DHT22;22957;50.824;4.360;2022-09-01T22:52:34;20.00;99.90
2391;DHT22;22957;50.824;4.360;2022-09-01T22:55:01;20.00;99.90
2391;DHT22;22957;50.824;4.360;2022-09-01T22:57:29;20.00;99.90
2391;DHT22;22957;50.824;4.360;2022-09-01T22:59:55;19.90;99.90
2391;DHT22;22957;50.824;4.360;2022-09-01T23:02:20;19.90;99.90
2391;DHT22;22957;50.824;4.360;2022-09-01T23:04:47;19.80;99.90
2391;DHT22;22957;50.824;4.360;2022-09-01T23:07:14;20.10;99.90
2391;DHT22;22957;50.824;4.360;2022-09-01T23:09:40;20.00;99.90
2391;DHT22;22957;50.824;4.360;2022-09-01T23:12:06;20.00;99.90
2391;DHT22;22957;50.824;4.360;2022-09-01T23:14:31;20.00;99.90
2391;DHT22;22957;50.824;4.360;2022-09-01T23:16:57;20.00;99.90
2391;DHT22;22957;50.824;4.360;2022-09-01T23:19:23;20.00;99.90
2391;DHT22;22957;50.824;4.360;2022-09-01T23:21:49;19.90;99.90
2391;DHT22;22957;50.824;4.360;2022-09-01T23:24:16;20.20;99.90
2391;DHT22;22957;50.824;4.360;2022-09-01T23:26:42;20.30;99.90
2391;DHT22;22957;50.824;4.360;2022-09-01T23:29:08;20.10;99.90
2391;DHT22;22957;50.824;4.360;2022-09-01T23:31:36;20.00;99.90
2391;DHT22;22957;50.824;4.360;2022-09-01T23:34:04;20.00;99.90
2391;DHT22;22957;50.824;4.360;2022-09-01T23:36:31;20.00;99.90
2391;DHT22;22957;50.824;4.360;2022-09-01T23:38:57;19.90;99.90
2391;DHT22;22957;50.824;4.360;2022-09-01T23:41:28;19.80;99.90
2391;DHT22;22957;50.824;4.360;2022-09-01T23:43:59;19.60;99.90
2391;DHT22;22957;50.824;4.360;2022-09-01T23:46:31;19.70;99.90
2391;DHT22;22957;50.824;4.360;2022-09-01T23:48:57;19.80;99.90
2391;DHT22;22957;50.824;4.360;2022-09-01T23:51:23;19.50;99.90
2391;DHT22;22957;50.824;4.360;2022-09-01T23:53:50;19.40;99.90
2391;DHT22;22957;50.824;4.360;2022-09-01T23:56:18;19.60;99.90
2391;DHT22;22957;50.824;4.360;2022-09-01T23:58:44;19.70;99.90
